sensor_id;sensor_type;location;lat;lon;timestamp;temperature;humidity
72604;DHT22;60645;56.968;24.196;2024-01-30T00:00:51;0.80;98.90
72604;DHT22;60645;56.968;24.196;2024-01-30T00:03:18;1.00;99.00
72604;DHT22;60645;56.968;24.196;2024-01-30T00:05:45;0.80;98.90
72604;DHT22;60645;56.968;24.196;2024-01-30T00:08:12;0.90;98.90
72604;DHT22;60645;56.968;24.196;2024-01-30T00:10:39;0.90;98.70
72604;DHT22;60645;56.968;24.196;2024-01-30T00:13:06;1.00;98.60
72604;DHT22;60645;56.968;24.196;2024-01-30T00:15:34;0.80;98.60
72604;DHT22;60645;56.968;24.196;2024-01-30T00:18:01;1.00;98.60
72604;DHT22;60645;56.968;24.196;2024-01-30T00:20:28;0.90;98.50
72604;DHT22;60645;56.968;24.196;2024-01-30T00:22:55;1.00;98.60
72604;DHT22;60645;56.968;24.196;2024-01-30T00:25:21;0.90;98.70
72604;DHT22;60645;56.968;24.196;2024-01-30T00:27:48;0.80;98.70
72604;DHT22;60645;56.968;24.196;2024-01-30T00:30:15;0.90;98.60
72604;DHT22;60645;56.968;24.196;2024-01-30T00:32:42;0.90;98.80
72604;DHT22;60645;56.968;24.196;2024-01-30T00:35:09;0.70;98.90
72604;DHT22;60645;56.968;24.196;2024-01-30T00:37:37;0.90;99.00
72604;DHT22;60645;56.968;24.196;2024-01-30T00:40:04;0.80;99.10
72604;DHT22;60645;56.968;24.196;2024-01-30T00:42:33;0.80;99.10
72604;DHT22;60645;56.968;24.196;2024-01-30T00:45:00;0.90;99.20
72604;DHT22;60645;56.968;24.196;2024-01-30T00:47:26;0.60;99.20
72604;DHT22;60645;56.968;24.196;2024-01-30T00:49:53;0.80;99.20
72604;DHT22;60645;56.968;24.196;2024-01-30T00:52:21;0.70;99.20
72604;DHT22;60645;56.968;24.196;2024-01-30T00:54:48;0.60;99.30
72604;DHT22;60645;56.968;24.196;2024-01-30T00:57:14;0.60;99.50
72604;DHT22;60645;56.968;24.196;2024-01-30T00:59:41;0.70;99.40
72604;DHT22;60645;56.968;24.196;2024-01-30T01:02:08;0.70;99.40
72604;DHT22;60645;56.968;24.196;2024-01-30T01:04:35;0.60;99.20
72604;DHT22;60645;56.968;24.196;2024-01-30T01:07:02;0.70;99.20
72604;DHT22;60645;56.968;24.196;2024-01-30T01:09:29;0.70;99.20
72604;DHT22;60645;56.968;24.196;2024-01-30T01:11:56;0.60;99.20
72604;DHT22;60645;56.968;24.196;2024-01-30T01:14:23;0.70;99.30
72604;DHT22;60645;56.968;24.196;2024-01-30T01:16:50;0.60;99.30
72604;DHT22;60645;56.968;24.196;2024-01-30T01:19:17;0.60;99.50
72604;DHT22;60645;56.968;24.196;2024-01-30T01:21:44;0.50;99.60
72604;DHT22;60645;56.968;24.196;2024-01-30T01:24:11;0.70;99.60
72604;DHT22;60645;56.968;24.196;2024-01-30T01:26:37;0.60;99.90
72604;DHT22;60645;56.968;24.196;2024-01-30T01:29:05;0.40;99.90
72604;DHT22;60645;56.968;24.196;2024-01-30T01:31:36;0.60;99.80
72604;DHT22;60645;56.968;24.196;2024-01-30T01:34:06;0.50;99.80
72604;DHT22;60645;56.968;24.196;2024-01-30T01:36:33;0.50;99.80
72604;DHT22;60645;56.968;24.196;2024-01-30T01:39:00;0.50;99.90
72604;DHT22;60645;56.968;24.196;2024-01-30T01:41:30;0.80;99.90
72604;DHT22;60645;56.968;24.196;2024-01-30T01:43:58;0.50;99.80
72604;DHT22;60645;56.968;24.196;2024-01-30T01:46:29;0.50;99.90
72604;DHT22;60645;56.968;24.196;2024-01-30T01:48:57;0.60;99.90
72604;DHT22;60645;56.968;24.196;2024-01-30T01:51:24;0.70;99.90
72604;DHT22;60645;56.968;24.196;2024-01-30T01:53:53;0.80;99.90
72604;DHT22;60645;56.968;24.196;2024-01-30T01:56:21;0.70;99.80
72604;DHT22;60645;56.968;24.196;2024-01-30T01:58:48;0.50;99.80
72604;DHT22;60645;56.968;24.196;2024-01-30T02:01:16;0.80;99.90
72604;DHT22;60645;56.968;24.196;2024-01-30T02:03:45;0.60;99.90
72604;DHT22;60645;56.968;24.196;2024-01-30T02:06:13;0.70;99.80
72604;DHT22;60645;56.968;24.196;2024-01-30T02:08:41;0.70;99.70
72604;DHT22;60645;56.968;24.196;2024-01-30T02:11:08;0.60;99.80
72604;DHT22;60645;56.968;24.196;2024-01-30T02:13:36;0.60;99.70
72604;DHT22;60645;56.968;24.196;2024-01-30T02:16:03;0.60;99.50
72604;DHT22;60645;56.968;24.196;2024-01-30T02:18:30;0.70;99.90
72604;DHT22;60645;56.968;24.196;2024-01-30T02:20:58;0.70;99.90
72604;DHT22;60645;56.968;24.196;2024-01-30T02:23:25;0.60;99.90
72604;DHT22;60645;56.968;24.196;2024-01-30T02:25:52;0.60;99.90
72604;DHT22;60645;56.968;24.196;2024-01-30T02:28:19;0.50;99.90
72604;DHT22;60645;56.968;24.196;2024-01-30T02:30:46;0.60;99.90
72604;DHT22;60645;56.968;24.196;2024-01-30T02:33:13;0.40;99.90
72604;DHT22;60645;56.968;24.196;2024-01-30T02:35:40;0.60;99.90
72604;DHT22;60645;56.968;24.196;2024-01-30T02:38:07;0.50;99.90
72604;DHT22;60645;56.968;24.196;2024-01-30T02:40:34;0.30;99.90
72604;DHT22;60645;56.968;24.196;2024-01-30T02:43:01;0.30;99.90
72604;DHT22;60645;56.968;24.196;2024-01-30T02:45:28;0.40;99.90
72604;DHT22;60645;56.968;24.196;2024-01-30T02:47:55;0.40;99.90
72604;DHT22;60645;56.968;24.196;2024-01-30T02:50:22;0.40;99.90
72604;DHT22;60645;56.968;24.196;2024-01-30T02:52:49;0.50;99.90
72604;DHT22;60645;56.968;24.196;2024-01-30T02:55:15;0.40;99.90
72604;DHT22;60645;56.968;24.196;2024-01-30T02:57:45;0.40;99.90
72604;DHT22;60645;56.968;24.196;2024-01-30T03:00:12;0.50;99.90
72604;DHT22;60645;56.968;24.196;2024-01-30T03:02:39;0.50;99.90
72604;DHT22;60645;56.968;24.196;2024-01-30T03:05:07;0.40;99.90
72604;DHT22;60645;56.968;24.196;2024-01-30T03:07:34;0.30;99.90
72604;DHT22;60645;56.968;24.196;2024-01-30T03:10:01;0.40;99.90
72604;DHT22;60645;56.968;24.196;2024-01-30T03:12:28;0.40;99.90
72604;DHT22;60645;56.968;24.196;2024-01-30T03:14:55;0.50;99.90
72604;DHT22;60645;56.968;24.196;2024-01-30T03:17:22;0.50;99.90
72604;DHT22;60645;56.968;24.196;2024-01-30T03:19:48;0.60;99.90
72604;DHT22;60645;56.968;24.196;2024-01-30T03:22:15;0.50;99.90
72604;DHT22;60645;56.968;24.196;2024-01-30T03:24:42;0.60;99.90
72604;DHT22;60645;56.968;24.196;2024-01-30T03:27:09;0.40;99.90
72604;DHT22;60645;56.968;24.196;2024-01-30T03:29:36;0.60;99.90
72604;DHT22;60645;56.968;24.196;2024-01-30T03:32:03;0.80;99.90
72604;DHT22;60645;56.968;24.196;2024-01-30T03:34:30;0.70;99.90
72604;DHT22;60645;56.968;24.196;2024-01-30T03:36:57;0.50;99.90
72604;DHT22;60645;56.968;24.196;2024-01-30T03:39:24;0.40;99.90
72604;DHT22;60645;56.968;24.196;2024-01-30T03:41:51;0.40;99.90
72604;DHT22;60645;56.968;24.196;2024-01-30T03:44:18;0.50;99.90
72604;DHT22;60645;56.968;24.196;2024-01-30T03:46:45;0.50;99.90
72604;DHT22;60645;56.968;24.196;2024-01-30T03:49:12;0.50;99.90
72604;DHT22;60645;56.968;24.196;2024-01-30T03:51:39;0.70;99.90
72604;DHT22;60645;56.968;24.196;2024-01-30T03:54:06;0.50;99.90
72604;DHT22;60645;56.968;24.196;2024-01-30T03:56:33;0.70;99.90
72604;DHT22;60645;56.968;24.196;2024-01-30T03:59:00;0.60;99.90
72604;DHT22;60645;56.968;24.196;2024-01-30T04:01:29;0.50;99.90
72604;DHT22;60645;56.968;24.196;2024-01-30T04:03:56;0.70;99.90
72604;DHT22;60645;56.968;24.196;2024-01-30T04:06:23;0.40;99.90
72604;DHT22;60645;56.968;24.196;2024-01-30T04:08:50;0.40;99.90
72604;DHT22;60645;56.968;24.196;2024-01-30T04:11:18;0.10;99.90
72604;DHT22;60645;56.968;24.196;2024-01-30T04:13:45;0.40;99.90
72604;DHT22;60645;56.968;24.196;2024-01-30T04:16:22;0.10;99.90
72604;DHT22;60645;56.968;24.196;2024-01-30T04:18:51;0.30;99.90
72604;DHT22;60645;56.968;24.196;2024-01-30T04:21:18;0.40;99.90
72604;DHT22;60645;56.968;24.196;2024-01-30T04:23:44;0.10;99.90
72604;DHT22;60645;56.968;24.196;2024-01-30T04:26:11;0.40;99.90
72604;DHT22;60645;56.968;24.196;2024-01-30T04:28:38;0.20;99.90
72604;DHT22;60645;56.968;24.196;2024-01-30T04:31:05;0.10;99.90
72604;DHT22;60645;56.968;24.196;2024-01-30T04:33:32;0.20;99.90
72604;DHT22;60645;56.968;24.196;2024-01-30T04:35:59;0.30;99.90
72604;DHT22;60645;56.968;24.196;2024-01-30T04:38:25;0.20;99.90
72604;DHT22;60645;56.968;24.196;2024-01-30T04:40:52;0.30;99.90
72604;DHT22;60645;56.968;24.196;2024-01-30T04:43:19;0.40;99.90
72604;DHT22;60645;56.968;24.196;2024-01-30T04:45:46;0.40;99.90
72604;DHT22;60645;56.968;24.196;2024-01-30T04:48:13;0.30;99.90
72604;DHT22;60645;56.968;24.196;2024-01-30T04:50:40;0.40;99.90
72604;DHT22;60645;56.968;24.196;2024-01-30T04:53:07;0.60;99.90
72604;DHT22;60645;56.968;24.196;2024-01-30T04:55:35;0.40;99.90
72604;DHT22;60645;56.968;24.196;2024-01-30T04:58:02;0.30;99.90
72604;DHT22;60645;56.968;24.196;2024-01-30T05:00:29;0.30;99.90
72604;DHT22;60645;56.968;24.196;2024-01-30T05:02:56;0.30;99.90
72604;DHT22;60645;56.968;24.196;2024-01-30T05:05:22;0.20;99.90
72604;DHT22;60645;56.968;24.196;2024-01-30T05:07:49;0.20;99.90
72604;DHT22;60645;56.968;24.196;2024-01-30T05:10:16;0.40;99.90
72604;DHT22;60645;56.968;24.196;2024-01-30T05:12:43;0.40;99.90
72604;DHT22;60645;56.968;24.196;2024-01-30T05:15:10;0.40;99.90
72604;DHT22;60645;56.968;24.196;2024-01-30T05:17:37;0.50;99.90
72604;DHT22;60645;56.968;24.196;2024-01-30T05:20:04;0.40;99.90
72604;DHT22;60645;56.968;24.196;2024-01-30T05:22:31;0.50;99.90
72604;DHT22;60645;56.968;24.196;2024-01-30T05:24:58;0.40;99.90
72604;DHT22;60645;56.968;24.196;2024-01-30T05:27:25;0.50;99.90
72604;DHT22;60645;56.968;24.196;2024-01-30T05:29:52;0.40;99.90
72604;DHT22;60645;56.968;24.196;2024-01-30T05:32:18;0.50;99.90
72604;DHT22;60645;56.968;24.196;2024-01-30T05:34:45;0.50;99.90
72604;DHT22;60645;56.968;24.196;2024-01-30T05:37:12;0.30;99.90
72604;DHT22;60645;56.968;24.196;2024-01-30T05:39:43;0.40;99.90
72604;DHT22;60645;56.968;24.196;2024-01-30T05:42:10;0.40;99.90
72604;DHT22;60645;56.968;24.196;2024-01-30T05:44:37;0.50;99.90
72604;DHT22;60645;56.968;24.196;2024-01-30T05:47:04;0.40;99.90
72604;DHT22;60645;56.968;24.196;2024-01-30T05:49:31;0.40;99.90
72604;DHT22;60645;56.968;24.196;2024-01-30T05:51:58;0.50;99.90
72604;DHT22;60645;56.968;24.196;2024-01-30T05:54:25;0.60;99.90
72604;DHT22;60645;56.968;24.196;2024-01-30T05:56:52;0.40;99.90
72604;DHT22;60645;56.968;24.196;2024-01-30T05:59:18;0.50;99.90
72604;DHT22;60645;56.968;24.196;2024-01-30T06:01:46;0.50;99.90
72604;DHT22;60645;56.968;24.196;2024-01-30T06:04:13;0.60;99.90
72604;DHT22;60645;56.968;24.196;2024-01-30T06:06:41;0.60;99.90
72604;DHT22;60645;56.968;24.196;2024-01-30T06:09:08;0.50;99.90
72604;DHT22;60645;56.968;24.196;2024-01-30T06:11:35;0.60;99.90
72604;DHT22;60645;56.968;24.196;2024-01-30T06:14:02;0.60;99.90
72604;DHT22;60645;56.968;24.196;2024-01-30T06:16:29;0.40;99.90
72604;DHT22;60645;56.968;24.196;2024-01-30T06:18:56;0.30;99.90
72604;DHT22;60645;56.968;24.196;2024-01-30T06:21:23;0.50;99.90
72604;DHT22;60645;56.968;24.196;2024-01-30T06:23:50;0.70;99.90
72604;DHT22;60645;56.968;24.196;2024-01-30T06:26:17;0.70;99.90
72604;DHT22;60645;56.968;24.196;2024-01-30T06:28:43;0.60;99.90
72604;DHT22;60645;56.968;24.196;2024-01-30T06:31:11;0.60;99.90
72604;DHT22;60645;56.968;24.196;2024-01-30T06:33:38;0.70;99.90
72604;DHT22;60645;56.968;24.196;2024-01-30T06:36:05;0.40;99.90
72604;DHT22;60645;56.968;24.196;2024-01-30T06:38:31;0.50;99.90
72604;DHT22;60645;56.968;24.196;2024-01-30T06:40:58;0.50;99.90
72604;DHT22;60645;56.968;24.196;2024-01-30T06:43:25;0.50;99.90
72604;DHT22;60645;56.968;24.196;2024-01-30T06:45:52;0.60;99.90
72604;DHT22;60645;56.968;24.196;2024-01-30T06:48:19;0.70;99.90
72604;DHT22;60645;56.968;24.196;2024-01-30T06:50:46;0.60;99.90
72604;DHT22;60645;56.968;24.196;2024-01-30T06:53:14;0.60;99.90
72604;DHT22;60645;56.968;24.196;2024-01-30T06:55:41;0.60;99.90
72604;DHT22;60645;56.968;24.196;2024-01-30T06:58:08;0.60;99.90
72604;DHT22;60645;56.968;24.196;2024-01-30T07:00:35;0.70;99.90
72604;DHT22;60645;56.968;24.196;2024-01-30T07:03:03;0.90;99.90
72604;DHT22;60645;56.968;24.196;2024-01-30T07:05:30;0.80;99.80
72604;DHT22;60645;56.968;24.196;2024-01-30T07:07:56;0.60;99.80
72604;DHT22;60645;56.968;24.196;2024-01-30T07:10:24;0.70;99.90
72604;DHT22;60645;56.968;24.196;2024-01-30T07:12:51;0.60;99.90
72604;DHT22;60645;56.968;24.196;2024-01-30T07:15:18;0.90;99.80
72604;DHT22;60645;56.968;24.196;2024-01-30T07:17:47;0.60;99.70
72604;DHT22;60645;56.968;24.196;2024-01-30T07:20:13;0.80;99.70
72604;DHT22;60645;56.968;24.196;2024-01-30T07:22:43;0.80;99.70
72604;DHT22;60645;56.968;24.196;2024-01-30T07:25:11;0.80;99.60
72604;DHT22;60645;56.968;24.196;2024-01-30T07:27:38;0.80;99.90
72604;DHT22;60645;56.968;24.196;2024-01-30T07:30:05;0.60;99.90
72604;DHT22;60645;56.968;24.196;2024-01-30T07:32:34;0.60;99.90
72604;DHT22;60645;56.968;24.196;2024-01-30T07:35:01;0.60;99.90
72604;DHT22;60645;56.968;24.196;2024-01-30T07:37:34;0.70;99.90
72604;DHT22;60645;56.968;24.196;2024-01-30T07:40:02;0.70;99.90
72604;DHT22;60645;56.968;24.196;2024-01-30T07:42:30;0.80;99.90
72604;DHT22;60645;56.968;24.196;2024-01-30T07:44:57;0.70;99.80
72604;DHT22;60645;56.968;24.196;2024-01-30T07:47:24;0.80;99.90
72604;DHT22;60645;56.968;24.196;2024-01-30T07:49:51;0.80;99.80
72604;DHT22;60645;56.968;24.196;2024-01-30T07:52:18;1.00;99.40
72604;DHT22;60645;56.968;24.196;2024-01-30T07:54:45;1.20;98.80
72604;DHT22;60645;56.968;24.196;2024-01-30T07:57:12;1.10;98.60
72604;DHT22;60645;56.968;24.196;2024-01-30T07:59:38;1.00;98.70
72604;DHT22;60645;56.968;24.196;2024-01-30T08:02:05;1.10;98.80
72604;DHT22;60645;56.968;24.196;2024-01-30T08:04:32;1.10;98.70
72604;DHT22;60645;56.968;24.196;2024-01-30T08:06:59;1.10;98.80
72604;DHT22;60645;56.968;24.196;2024-01-30T08:09:26;1.20;98.40
72604;DHT22;60645;56.968;24.196;2024-01-30T08:11:53;1.10;98.30
72604;DHT22;60645;56.968;24.196;2024-01-30T08:14:20;1.30;98.00
72604;DHT22;60645;56.968;24.196;2024-01-30T08:16:46;1.40;97.70
72604;DHT22;60645;56.968;24.196;2024-01-30T08:19:14;1.50;97.70
72604;DHT22;60645;56.968;24.196;2024-01-30T08:21:41;1.60;97.50
72604;DHT22;60645;56.968;24.196;2024-01-30T08:24:08;1.30;97.40
72604;DHT22;60645;56.968;24.196;2024-01-30T08:26:35;1.40;97.60
72604;DHT22;60645;56.968;24.196;2024-01-30T08:29:02;1.70;96.80
72604;DHT22;60645;56.968;24.196;2024-01-30T08:31:29;1.80;96.50
72604;DHT22;60645;56.968;24.196;2024-01-30T08:33:56;1.90;96.30
72604;DHT22;60645;56.968;24.196;2024-01-30T08:36:23;2.00;96.00
72604;DHT22;60645;56.968;24.196;2024-01-30T08:38:50;1.80;96.20
72604;DHT22;60645;56.968;24.196;2024-01-30T08:41:20;2.00;96.00
72604;DHT22;60645;56.968;24.196;2024-01-30T08:43:47;2.10;95.50
72604;DHT22;60645;56.968;24.196;2024-01-30T08:46:17;2.10;95.30
72604;DHT22;60645;56.968;24.196;2024-01-30T08:48:44;2.30;94.90
72604;DHT22;60645;56.968;24.196;2024-01-30T08:51:11;2.30;94.80
72604;DHT22;60645;56.968;24.196;2024-01-30T08:53:37;2.30;94.90
72604;DHT22;60645;56.968;24.196;2024-01-30T08:56:05;2.30;94.70
72604;DHT22;60645;56.968;24.196;2024-01-30T08:58:32;2.10;95.00
72604;DHT22;60645;56.968;24.196;2024-01-30T09:00:59;2.00;94.90
72604;DHT22;60645;56.968;24.196;2024-01-30T09:03:26;2.00;95.20
72604;DHT22;60645;56.968;24.196;2024-01-30T09:05:54;2.20;95.00
72604;DHT22;60645;56.968;24.196;2024-01-30T09:08:21;2.10;95.00
72604;DHT22;60645;56.968;24.196;2024-01-30T09:10:48;2.00;94.80
72604;DHT22;60645;56.968;24.196;2024-01-30T09:13:16;2.10;95.10
72604;DHT22;60645;56.968;24.196;2024-01-30T09:15:43;2.10;95.30
72604;DHT22;60645;56.968;24.196;2024-01-30T09:18:10;2.10;95.20
72604;DHT22;60645;56.968;24.196;2024-01-30T09:20:37;2.40;94.90
72604;DHT22;60645;56.968;24.196;2024-01-30T09:23:04;2.30;94.90
72604;DHT22;60645;56.968;24.196;2024-01-30T09:25:30;2.10;95.50
72604;DHT22;60645;56.968;24.196;2024-01-30T09:27:58;2.10;95.20
72604;DHT22;60645;56.968;24.196;2024-01-30T09:30:25;2.30;94.80
72604;DHT22;60645;56.968;24.196;2024-01-30T09:32:52;2.40;94.40
72604;DHT22;60645;56.968;24.196;2024-01-30T09:35:19;2.50;93.90
72604;DHT22;60645;56.968;24.196;2024-01-30T09:37:46;2.40;93.80
72604;DHT22;60645;56.968;24.196;2024-01-30T09:40:13;2.50;94.20
72604;DHT22;60645;56.968;24.196;2024-01-30T09:42:40;2.50;94.00
72604;DHT22;60645;56.968;24.196;2024-01-30T09:45:06;2.50;94.00
72604;DHT22;60645;56.968;24.196;2024-01-30T09:47:36;2.50;94.20
72604;DHT22;60645;56.968;24.196;2024-01-30T09:50:06;2.40;94.20
72604;DHT22;60645;56.968;24.196;2024-01-30T09:52:33;2.30;94.50
72604;DHT22;60645;56.968;24.196;2024-01-30T09:55:00;2.30;94.70
72604;DHT22;60645;56.968;24.196;2024-01-30T09:57:28;2.50;94.30
72604;DHT22;60645;56.968;24.196;2024-01-30T09:59:55;2.50;93.90
72604;DHT22;60645;56.968;24.196;2024-01-30T10:02:21;2.60;93.60
72604;DHT22;60645;56.968;24.196;2024-01-30T10:04:49;2.70;93.50
72604;DHT22;60645;56.968;24.196;2024-01-30T10:07:16;2.70;93.60
72604;DHT22;60645;56.968;24.196;2024-01-30T10:09:44;2.70;93.70
72604;DHT22;60645;56.968;24.196;2024-01-30T10:12:11;2.80;93.50
72604;DHT22;60645;56.968;24.196;2024-01-30T10:14:38;2.50;93.60
72604;DHT22;60645;56.968;24.196;2024-01-30T10:17:08;2.50;94.00
72604;DHT22;60645;56.968;24.196;2024-01-30T10:19:47;2.50;93.60
72604;DHT22;60645;56.968;24.196;2024-01-30T10:22:14;2.40;93.70
72604;DHT22;60645;56.968;24.196;2024-01-30T10:24:41;2.40;94.10
72604;DHT22;60645;56.968;24.196;2024-01-30T10:27:08;2.70;93.80
72604;DHT22;60645;56.968;24.196;2024-01-30T10:29:35;2.70;93.30
72604;DHT22;60645;56.968;24.196;2024-01-30T10:32:04;2.90;93.20
72604;DHT22;60645;56.968;24.196;2024-01-30T10:34:31;2.80;92.90
72604;DHT22;60645;56.968;24.196;2024-01-30T10:37:08;2.90;92.80
72604;DHT22;60645;56.968;24.196;2024-01-30T10:39:44;2.90;92.50
72604;DHT22;60645;56.968;24.196;2024-01-30T10:42:15;3.00;92.40
72604;DHT22;60645;56.968;24.196;2024-01-30T10:44:46;2.90;92.50
72604;DHT22;60645;56.968;24.196;2024-01-30T10:47:15;3.20;92.10
72604;DHT22;60645;56.968;24.196;2024-01-30T10:49:44;3.10;92.00
72604;DHT22;60645;56.968;24.196;2024-01-30T10:52:13;3.30;92.10
72604;DHT22;60645;56.968;24.196;2024-01-30T10:54:41;3.30;91.40
72604;DHT22;60645;56.968;24.196;2024-01-30T10:57:11;3.50;91.50
72604;DHT22;60645;56.968;24.196;2024-01-30T10:59:39;3.30;91.20
72604;DHT22;60645;56.968;24.196;2024-01-30T11:02:07;3.10;91.60
72604;DHT22;60645;56.968;24.196;2024-01-30T11:04:38;2.80;92.20
72604;DHT22;60645;56.968;24.196;2024-01-30T11:07:18;3.00;92.50
72604;DHT22;60645;56.968;24.196;2024-01-30T11:09:51;3.00;92.50
72604;DHT22;60645;56.968;24.196;2024-01-30T11:12:24;2.90;92.30
72604;DHT22;60645;56.968;24.196;2024-01-30T11:20:16;3.10;91.60
72604;DHT22;60645;56.968;24.196;2024-01-30T11:22:46;3.30;91.80
72604;DHT22;60645;56.968;24.196;2024-01-30T11:25:14;3.40;91.70
72604;DHT22;60645;56.968;24.196;2024-01-30T11:27:42;3.40;91.50
72604;DHT22;60645;56.968;24.196;2024-01-30T11:30:10;3.50;91.20
72604;DHT22;60645;56.968;24.196;2024-01-30T11:32:37;3.40;91.70
72604;DHT22;60645;56.968;24.196;2024-01-30T11:35:04;3.10;91.70
72604;DHT22;60645;56.968;24.196;2024-01-30T11:37:33;3.10;92.20
72604;DHT22;60645;56.968;24.196;2024-01-30T11:40:01;3.00;92.50
72604;DHT22;60645;56.968;24.196;2024-01-30T11:42:29;3.00;92.30
72604;DHT22;60645;56.968;24.196;2024-01-30T11:44:56;3.20;92.40
72604;DHT22;60645;56.968;24.196;2024-01-30T11:47:24;2.90;92.40
72604;DHT22;60645;56.968;24.196;2024-01-30T11:49:51;3.10;92.20
72604;DHT22;60645;56.968;24.196;2024-01-30T11:52:18;3.20;91.90
72604;DHT22;60645;56.968;24.196;2024-01-30T11:54:45;3.40;91.90
72604;DHT22;60645;56.968;24.196;2024-01-30T11:57:12;3.40;91.60
72604;DHT22;60645;56.968;24.196;2024-01-30T11:59:38;3.20;91.70
72604;DHT22;60645;56.968;24.196;2024-01-30T12:02:05;3.40;91.80
72604;DHT22;60645;56.968;24.196;2024-01-30T12:04:32;3.40;91.50
72604;DHT22;60645;56.968;24.196;2024-01-30T12:06:59;3.50;91.40
72604;DHT22;60645;56.968;24.196;2024-01-30T12:09:30;3.40;91.40
72604;DHT22;60645;56.968;24.196;2024-01-30T12:11:57;3.60;91.00
72604;DHT22;60645;56.968;24.196;2024-01-30T12:14:23;3.70;90.80
72604;DHT22;60645;56.968;24.196;2024-01-30T12:16:51;3.70;91.20
72604;DHT22;60645;56.968;24.196;2024-01-30T12:19:22;3.10;91.50
72604;DHT22;60645;56.968;24.196;2024-01-30T12:21:58;3.30;91.80
72604;DHT22;60645;56.968;24.196;2024-01-30T12:24:26;3.10;92.10
72604;DHT22;60645;56.968;24.196;2024-01-30T12:26:57;3.00;92.30
72604;DHT22;60645;56.968;24.196;2024-01-30T12:29:24;3.20;92.30
72604;DHT22;60645;56.968;24.196;2024-01-30T12:31:54;3.00;92.40
72604;DHT22;60645;56.968;24.196;2024-01-30T12:34:21;2.90;92.90
72604;DHT22;60645;56.968;24.196;2024-01-30T12:36:48;3.20;92.80
72604;DHT22;60645;56.968;24.196;2024-01-30T12:39:18;3.10;93.00
72604;DHT22;60645;56.968;24.196;2024-01-30T12:41:45;3.00;93.10
72604;DHT22;60645;56.968;24.196;2024-01-30T12:44:13;2.70;93.60
72604;DHT22;60645;56.968;24.196;2024-01-30T12:46:40;2.50;93.90
72604;DHT22;60645;56.968;24.196;2024-01-30T12:49:07;2.70;94.00
72604;DHT22;60645;56.968;24.196;2024-01-30T12:51:34;2.60;94.20
72604;DHT22;60645;56.968;24.196;2024-01-30T12:54:05;2.70;94.00
72604;DHT22;60645;56.968;24.196;2024-01-30T12:56:32;2.90;94.20
72604;DHT22;60645;56.968;24.196;2024-01-30T12:59:00;2.60;94.00
72604;DHT22;60645;56.968;24.196;2024-01-30T13:01:26;2.50;94.20
72604;DHT22;60645;56.968;24.196;2024-01-30T13:03:53;2.30;94.40
72604;DHT22;60645;56.968;24.196;2024-01-30T13:06:20;2.50;94.50
72604;DHT22;60645;56.968;24.196;2024-01-30T13:08:47;2.40;94.70
72604;DHT22;60645;56.968;24.196;2024-01-30T13:11:14;2.30;94.70
72604;DHT22;60645;56.968;24.196;2024-01-30T13:13:47;2.50;95.00
72604;DHT22;60645;56.968;24.196;2024-01-30T13:16:14;2.40;95.00
72604;DHT22;60645;56.968;24.196;2024-01-30T13:18:41;2.50;94.80
72604;DHT22;60645;56.968;24.196;2024-01-30T13:21:08;2.50;94.60
72604;DHT22;60645;56.968;24.196;2024-01-30T13:23:35;2.50;94.80
72604;DHT22;60645;56.968;24.196;2024-01-30T13:26:02;2.50;94.90
72604;DHT22;60645;56.968;24.196;2024-01-30T13:28:29;2.50;95.00
72604;DHT22;60645;56.968;24.196;2024-01-30T13:30:56;2.20;95.50
72604;DHT22;60645;56.968;24.196;2024-01-30T13:33:22;2.40;95.50
72604;DHT22;60645;56.968;24.196;2024-01-30T13:35:49;2.30;95.40
72604;DHT22;60645;56.968;24.196;2024-01-30T13:38:16;2.20;95.60
72604;DHT22;60645;56.968;24.196;2024-01-30T13:40:43;2.10;95.70
72604;DHT22;60645;56.968;24.196;2024-01-30T13:43:10;2.00;96.10
72604;DHT22;60645;56.968;24.196;2024-01-30T13:45:37;2.00;96.10
72604;DHT22;60645;56.968;24.196;2024-01-30T13:48:04;2.10;96.00
72604;DHT22;60645;56.968;24.196;2024-01-30T13:50:31;2.00;96.30
72604;DHT22;60645;56.968;24.196;2024-01-30T13:52:59;1.90;96.50
72604;DHT22;60645;56.968;24.196;2024-01-30T13:55:27;1.90;96.60
72604;DHT22;60645;56.968;24.196;2024-01-30T13:57:54;1.90;96.30
72604;DHT22;60645;56.968;24.196;2024-01-30T14:00:22;1.80;96.60
72604;DHT22;60645;56.968;24.196;2024-01-30T14:02:49;2.00;96.70
72604;DHT22;60645;56.968;24.196;2024-01-30T14:05:16;2.00;96.80
72604;DHT22;60645;56.968;24.196;2024-01-30T14:07:44;1.90;96.60
72604;DHT22;60645;56.968;24.196;2024-01-30T14:10:11;2.10;96.50
72604;DHT22;60645;56.968;24.196;2024-01-30T14:12:41;2.00;96.60
72604;DHT22;60645;56.968;24.196;2024-01-30T14:15:09;1.90;96.70
72604;DHT22;60645;56.968;24.196;2024-01-30T14:17:52;1.80;96.90
72604;DHT22;60645;56.968;24.196;2024-01-30T14:20:20;1.80;97.10
72604;DHT22;60645;56.968;24.196;2024-01-30T14:22:46;1.80;97.10
72604;DHT22;60645;56.968;24.196;2024-01-30T14:25:13;1.60;97.30
72604;DHT22;60645;56.968;24.196;2024-01-30T14:27:40;1.70;97.50
72604;DHT22;60645;56.968;24.196;2024-01-30T14:30:09;1.70;97.30
72604;DHT22;60645;56.968;24.196;2024-01-30T14:32:36;1.70;97.60
72604;DHT22;60645;56.968;24.196;2024-01-30T14:35:05;1.70;97.50
72604;DHT22;60645;56.968;24.196;2024-01-30T14:37:32;1.80;97.50
72604;DHT22;60645;56.968;24.196;2024-01-30T14:39:59;1.60;97.80
72604;DHT22;60645;56.968;24.196;2024-01-30T14:42:26;1.70;97.70
72604;DHT22;60645;56.968;24.196;2024-01-30T14:44:53;1.90;97.80
72604;DHT22;60645;56.968;24.196;2024-01-30T14:47:20;1.60;97.90
72604;DHT22;60645;56.968;24.196;2024-01-30T14:49:47;1.70;97.90
72604;DHT22;60645;56.968;24.196;2024-01-30T14:52:14;1.60;97.90
72604;DHT22;60645;56.968;24.196;2024-01-30T14:54:41;1.60;97.90
72604;DHT22;60645;56.968;24.196;2024-01-30T14:57:09;1.80;98.00
72604;DHT22;60645;56.968;24.196;2024-01-30T14:59:36;1.70;97.90
72604;DHT22;60645;56.968;24.196;2024-01-30T15:02:03;1.70;97.90
72604;DHT22;60645;56.968;24.196;2024-01-30T15:04:30;1.60;97.80
72604;DHT22;60645;56.968;24.196;2024-01-30T15:06:57;1.60;98.00
72604;DHT22;60645;56.968;24.196;2024-01-30T15:09:24;1.60;98.20
72604;DHT22;60645;56.968;24.196;2024-01-30T15:11:56;1.40;98.40
72604;DHT22;60645;56.968;24.196;2024-01-30T15:14:23;1.60;98.40
72604;DHT22;60645;56.968;24.196;2024-01-30T15:16:50;1.50;98.40
72604;DHT22;60645;56.968;24.196;2024-01-30T15:19:17;1.40;98.30
72604;DHT22;60645;56.968;24.196;2024-01-30T15:21:44;1.50;98.40
72604;DHT22;60645;56.968;24.196;2024-01-30T15:24:10;1.40;98.50
72604;DHT22;60645;56.968;24.196;2024-01-30T15:26:41;1.50;98.70
72604;DHT22;60645;56.968;24.196;2024-01-30T15:29:08;1.30;98.80
72604;DHT22;60645;56.968;24.196;2024-01-30T15:31:35;1.50;98.90
72604;DHT22;60645;56.968;24.196;2024-01-30T15:34:02;1.40;98.90
72604;DHT22;60645;56.968;24.196;2024-01-30T15:36:29;1.30;99.00